Flight Track Log - Related Links

Times and Time Zones

All times are in EDT time to prevent confusion due to time zone crossing. See the FDX1425 flight status page for this flight to view local times or setup timezone preferences in your user account.

Time Position Orientation Groundspeed Altitude Reporting Facility
EDT Latitude Longitude Course Direction KTS MPH feet Rate Location/Type
Sat 05:15:24 AM 35.0333 -89.9833 180° South 153 176 1,000  Level KMEM
Sat 05:16:37 AM 34.9667 -89.9833 180° South 202 232 3,500 2,288 Climbing KMEM
Sat 05:17:43 AM 34.8833 -89.9833 180° South 256 295 6,300 2,850 Climbing KMEM
Sat 05:18:37 AM 34.8333 -90.0167 209° Southwest 291 335 9,200 2,500 Climbing KMEM
Sat 05:19:43 AM 34.7672 -90.1144 231° Southwest 323 372 11,300 2,143 Climbing Memphis Center
Sat 05:20:43 AM 34.7025 -90.2031 228° Southwest 343 395 13,700 2,550 Climbing Memphis Center
Sat 05:21:43 AM 34.6317 -90.2964 227° Southwest 367 422 16,400 2,500 Climbing Memphis Center
Sat 05:22:43 AM 34.5608 -90.3900 227° Southwest 373 429 18,700 2,150 Climbing Memphis Center
Sat 05:23:43 AM 34.4836 -90.4856 226° Southwest 378 435 20,700 2,050 Climbing Memphis Center
Sat 05:24:43 AM 34.3936 -90.5686 217° Southwest 403 464 22,800 1,900 Climbing Memphis Center
Sat 05:25:43 AM 34.3017 -90.6564 218° Southwest 415 478 24,500 1,600 Climbing Memphis Center
Sat 05:26:43 AM 34.2286 -90.7414 224° Southwest 415 478 26,000 1,550 Climbing Memphis Center
Sat 05:27:43 AM 34.1425 -90.8467 225° Southwest 428 493 27,600 1,400 Climbing Memphis Center
Sat 05:28:43 AM 34.0544 -90.9489 224° Southwest 443 510 28,800 1,400 Climbing Memphis Center
Sat 05:29:43 AM 33.9622 -91.0533 223° Southwest 448 516 30,400 1,450 Climbing Memphis Center
Sat 05:30:43 AM 33.8717 -91.1553 223° Southwest 448 516 31,700 1,200 Climbing Memphis Center
Sat 05:31:43 AM 33.7750 -91.2719 225° Southwest 454 522 32,800 1,350 Climbing Memphis Center
Sat 05:32:43 AM 33.6822 -91.3756 223° Southwest 449 517 34,400 1,250 Climbing Memphis Center
Sat 05:33:43 AM 33.6000 -91.4744 225° Southwest 454 522 35,300 800 Climbing Memphis Center
Sat 05:34:43 AM 33.5094 -91.5781 224° Southwest 454 522 36,000 220 Climbing Memphis Center
Sat 05:36:54 AM 33.3094 -91.8086 224° Southwest 458 527 36,000  Level Fort Worth Center
Sat 05:37:54 AM 33.2144 -91.9239 225° Southwest 463 533 36,000  Level Fort Worth Center
Sat 05:38:54 AM 33.1144 -92.0269 221° Southwest 468 539 36,000  Level Fort Worth Center
Sat 05:39:54 AM 33.0231 -92.1314 224° Southwest 468 539 36,000  Level Fort Worth Center
Sat 05:40:54 AM 32.9292 -92.2361 223° Southwest 468 539 36,000  Level Fort Worth Center
Sat 05:41:54 AM 32.8375 -92.3428 224° Southwest 468 539 36,000  Level Fort Worth Center
Sat 05:42:54 AM 32.7456 -92.4442 223° Southwest 463 533 36,000  Level Fort Worth Center
Sat 05:43:54 AM 32.6517 -92.5481 223° Southwest 463 533 36,000  Level Fort Worth Center
Sat 05:44:54 AM 32.5556 -92.6517 222° Southwest 471 542 36,000  Level Fort Worth Center
Sat 05:45:54 AM 32.4633 -92.7550 223° Southwest 465 535 36,000  Level Fort Worth Center
Sat 05:46:54 AM 32.3775 -92.8603 226° Southwest 471 542 36,000  Level Fort Worth Center
Sat 05:47:54 AM 32.2828 -92.9608 222° Southwest 471 542 36,000  Level Fort Worth Center
Sat 05:50:19 AM 32.0575 -93.2053 223° Southwest 458 527 36,000 -29 Level Houston Center
Sat 05:51:19 AM 31.9631 -93.3108 223° Southwest 467 537 35,900  Descending Houston Center
Sat 05:52:19 AM 31.8672 -93.4097 221° Southwest 464 534 36,000 50 Climbing Houston Center
Sat 05:53:20 AM 31.7653 -93.5003 217° Southwest 464 534 36,000  Level Houston Center
Sat 05:54:20 AM 31.6622 -93.5858 215° Southwest 459 528 36,000  Level Houston Center
Sat 05:55:20 AM 31.5553 -93.6781 216° Southwest 469 540 36,000 -300 Level Houston Center
Sat 05:56:20 AM 31.4500 -93.7672 216° Southwest 466 536 35,400 -1,091 Descending Houston Center
Sat 05:57:21 AM 31.3467 -93.8547 216° Southwest 459 528 33,800 -2,331 Descending Houston Center
Sat 05:58:21 AM 31.2439 -93.9414 216° Southwest 453 521 30,700 -2,472 Descending Houston Center
Sat 06:03:59 AM 30.7083 -94.3930 216° Southwest 390 449 17,400 -2,341 Descending FlightAware ADS-B
Sat 06:04:30 AM 30.6629 -94.4311 216° Southwest 378 435 16,300 -2,063 Descending FlightAware ADS-B
Sat 06:05:03 AM 30.6165 -94.4694 215° Southwest 368 423 15,200 -1,969 Descending FlightAware ADS-B
Sat 06:05:34 AM 30.5750 -94.5038 216° Southwest 360 414 14,200 -1,935 Descending FlightAware ADS-B
Sat 06:06:05 AM 30.5323 -94.5394 216° Southwest 353 406 13,200 -1,935 Descending FlightAware ADS-B
Sat 06:06:36 AM 30.4921 -94.5723 215° Southwest 346 398 12,200 -1,869 Descending FlightAware ADS-B
Sat 06:07:06 AM 30.4525 -94.6056 216° Southwest 340 391 11,300 -1,377 Descending FlightAware ADS-B
Sat 06:07:37 AM 30.4145 -94.6368 215° Southwest 322 371 10,800 -1,176 Descending FlightAware ADS-B
Sat 06:09:34 AM 30.2826 -94.7456 215° Southwest 289 333 8,400 -1,182 Descending FlightAware ADS-B
Sat 06:09:49 AM 30.2661 -94.7598 217° Southwest 280 322 8,200 -1,355 Descending FlightAware ADS-B
Sat 06:10:05 AM 30.2499 -94.7730 215° Southwest 282 325 7,700 -1,742 Descending FlightAware ADS-B
Sat 06:10:20 AM 30.2336 -94.7863 215° Southwest 283 326 7,300 -968 Descending FlightAware ADS-B
Sat 06:10:36 AM 30.2168 -94.8002 216° Southwest 272 313 7,200 -1,161 Descending FlightAware ADS-B
Sat 06:10:51 AM 30.2014 -94.8129 215° Southwest 274 315 6,700 -1,800 Descending FlightAware ADS-B
Sat 06:11:06 AM 30.1856 -94.8267 217° Southwest 276 318 6,300 -1,161 Descending FlightAware ADS-B
Sat 06:11:22 AM 30.1693 -94.8393 214° Southwest 268 308 6,100 -1,277 Descending FlightAware ADS-B
Sat 06:11:53 AM 30.1383 -94.8655 216° Southwest 268 308 5,300 -1,345 Descending FlightAware ADS-B
Sat 06:12:20 AM 30.1112 -94.8875 216° Southwest 263 303 4,800 -1,286 Descending FlightAware ADS-B
Sat 06:12:35 AM 30.0958 -94.8996 214° Southwest 263 303 4,400 -1,400 Descending FlightAware ADS-B
Sat 06:12:50 AM 30.0807 -94.9126 217° Southwest 261 300 4,100 -1,034 Descending FlightAware ADS-B
Sat 06:13:04 AM 30.0676 -94.9230 214° Southwest 253 291 3,900 -414 Descending FlightAware ADS-B
Sat 06:13:19 AM 30.0536 -94.9342 215° Southwest 237 273 3,900  Level FlightAware ADS-B
Sat 06:13:37 AM 30.0382 -94.9468 215° Southwest 219 252 3,900  Level FlightAware ADS-B
Sat 06:13:45 AM 30.0325 -94.9533 225° Southwest 217 250 3,900 -545 Level FlightAware ADS-B
Sat 06:13:48 AM 30.0308 -94.9560 234° Southwest 217 250 3,800 -1,333 Descending FlightAware ADS-B
Sat 06:13:54 AM 30.0278 -94.9633 245° Southwest 218 251 3,700 -1,000 Descending FlightAware ADS-B
Sat 06:14:00 AM 30.0259 -94.9687 248° West 218 251 3,600 -1,000 Descending FlightAware ADS-B
Sat 06:14:06 AM 30.0234 -94.9763 249° West 217 250 3,500 -1,000 Descending FlightAware ADS-B
Sat 06:14:12 AM 30.0214 -94.9817 247° West 217 250 3,400 -1,091 Descending FlightAware ADS-B
Sat 06:14:28 AM 30.0151 -94.9987 247° West 216 249 3,100 -1,161 Descending FlightAware ADS-B
Sat 06:14:43 AM 30.0092 -95.0146 247° West 215 247 2,800 -1,000 Descending FlightAware ADS-B
Sat 06:14:58 AM 30.0035 -95.0316 249° West 213 245 2,600 -800 Descending FlightAware ADS-B
Sat 06:15:13 AM 29.9980 -95.0470 248° West 204 235 2,400 -800 Descending FlightAware ADS-B
Sat 06:15:28 AM 29.9927 -95.0618 248° West 195 224 2,200 -581 Descending FlightAware ADS-B
Sat 06:15:44 AM 29.9875 -95.0761 247° West 187 215 2,100 -581 Descending FlightAware ADS-B
Sat 06:15:59 AM 29.9829 -95.0906 250° West 179 206 1,900 -500 Descending FlightAware ADS-B
Sat 06:16:08 AM 29.9803 -95.0976 247° West 177 204 1,900  Level FlightAware ADS-B
Sat 06:16:22 AM 29.9783 -95.1106 260° West 179 206 1,900  Level FlightAware ADS-B
Sat 06:16:27 AM 29.9781 -95.1153 267° West 179 206 1,900  Level FlightAware ADS-B
Sat 06:16:40 AM 29.9775 -95.1278 267° West 181 208 1,900  Level FlightAware ADS-B
Sat 06:16:57 AM 29.9774 -95.1442 270° West 181 208 1,900  Level FlightAware ADS-B
Sat 06:17:03 AM 29.9775 -95.1510 271° West 181 208 1,900  Level FlightAware ADS-B
Sat 06:17:19 AM 29.9775 -95.1665 270° West 181 208 1,900  Level FlightAware ADS-B
Sat 06:17:31 AM 29.9776 -95.1770 271° West 172 198 1,900 -300 Level FlightAware ADS-B
Sat 06:17:59 AM 29.9776 -95.2005 270° West 159 183 1,700 -533 Descending FlightAware ADS-B
Sat 06:18:16 AM 29.9775 -95.2145 270° West 141 162 1,500 -643 Descending FlightAware ADS-B
Sat 06:18:27 AM 29.9775 -95.2227 270° West 139 160 1,400 -643 Descending FlightAware ADS-B
Sat 06:18:44 AM 29.9776 -95.2345 271° West 136 157 1,200 -706 Descending FlightAware ADS-B
Sat 06:19:01 AM 29.9776 -95.2467 270° West 135 155 1,000 -727 Descending FlightAware ADS-B
Sat 06:19:17 AM 29.9776 -95.2582 270° West 134 154 800 -750 Descending FlightAware ADS-B
Sat 06:19:33 AM 29.9776 -95.2697 270° West 135 155 600 -727 Descending FlightAware ADS-B
Sat 06:19:50 AM 29.9776 -95.2827 270° West 135 155 400 -750 Descending FlightAware ADS-B
Sat 06:20:05 AM 29.9776 -95.2928 270° West 136 157 200 -800 Descending FlightAware ADS-B

Login

Don't have an account? Register now (free) for customized features, flight alerts, and more!